createdAt,value
2018-07-09T00:01:18.449Z,99.90
2018-07-09T00:03:47.600Z,99.90
2018-07-09T00:06:16.871Z,99.90
2018-07-09T00:08:46.187Z,99.90
2018-07-09T00:11:15.378Z,99.90
2018-07-09T00:13:44.539Z,99.90
2018-07-09T00:16:14.096Z,99.90
2018-07-09T00:21:11.983Z,99.90
2018-07-09T00:23:41.191Z,99.90
2018-07-09T00:26:10.294Z,99.90
2018-07-09T00:28:39.556Z,99.90
2018-07-09T00:31:08.779Z,99.90
2018-07-09T00:33:38.014Z,99.90
2018-07-09T00:36:07.171Z,99.90
2018-07-09T00:38:36.352Z,99.90
2018-07-09T00:41:05.589Z,99.90
2018-07-09T00:43:34.949Z,99.90
2018-07-09T00:46:04.591Z,99.90
2018-07-09T00:48:33.786Z,99.90
2018-07-09T00:51:03.051Z,99.90
2018-07-09T00:53:32.124Z,99.90
2018-07-09T00:56:01.359Z,99.90
2018-07-09T00:58:30.604Z,99.90
2018-07-09T01:00:59.740Z,99.90
2018-07-09T01:03:29.036Z,99.90
2018-07-09T01:05:58.380Z,99.90
2018-07-09T01:08:28.157Z,99.90
2018-07-09T01:11:08.694Z,99.90
2018-07-09T01:13:44.719Z,99.90
2018-07-09T01:16:14.146Z,99.90
2018-07-09T01:18:43.715Z,99.90
2018-07-09T01:21:13.947Z,99.90
2018-07-09T01:23:43.167Z,99.90
2018-07-09T01:26:12.464Z,99.90
2018-07-09T01:28:42.452Z,99.90
2018-07-09T01:31:11.679Z,99.90
2018-07-09T01:33:40.965Z,99.90
2018-07-09T01:36:10.155Z,99.90
2018-07-09T01:38:39.461Z,99.90
2018-07-09T01:43:37.423Z,99.90
2018-07-09T01:46:06.975Z,99.90
2018-07-09T01:48:36.167Z,99.90
2018-07-09T01:51:05.655Z,99.90
2018-07-09T01:53:34.852Z,99.90
2018-07-09T01:56:04.184Z,99.90
2018-07-09T01:58:33.309Z,99.90
2018-07-09T02:01:02.746Z,99.90
2018-07-09T02:08:29.534Z,99.90
2018-07-09T02:10:58.722Z,99.90
2018-07-09T02:13:28.024Z,99.90
2018-07-09T02:15:57.180Z,99.90
2018-07-09T02:18:26.410Z,99.90
2018-07-09T02:20:55.761Z,99.90
2018-07-09T02:23:24.912Z,99.90
2018-07-09T02:25:54.096Z,99.90
2018-07-09T02:28:23.396Z,99.90
2018-07-09T02:30:52.619Z,99.90
2018-07-09T02:33:21.919Z,99.90
2018-07-09T02:35:51.256Z,99.90
2018-07-09T02:38:20.644Z,99.90
2018-07-09T02:40:49.920Z,99.90
2018-07-09T02:45:48.028Z,99.90
2018-07-09T02:48:17.465Z,99.90
2018-07-09T02:50:46.601Z,99.90
2018-07-09T02:53:16.046Z,99.90
2018-07-09T02:55:45.212Z,99.90
2018-07-09T02:58:14.520Z,99.90
2018-07-09T03:00:43.888Z,99.90
2018-07-09T03:03:13.147Z,99.90
2018-07-09T03:05:42.502Z,99.90
2018-07-09T03:08:11.699Z,99.90
2018-07-09T03:13:10.028Z,99.90
2018-07-09T03:15:39.165Z,99.90
2018-07-09T03:18:08.492Z,99.90
2018-07-09T03:20:37.666Z,99.90
2018-07-09T03:23:06.948Z,99.90
2018-07-09T03:25:36.219Z,99.90
2018-07-09T03:30:34.338Z,99.90
2018-07-09T03:33:03.528Z,99.90
2018-07-09T03:35:32.688Z,99.90
2018-07-09T03:38:01.920Z,99.90
2018-07-09T03:40:31.223Z,99.90
2018-07-09T03:43:00.376Z,99.90
2018-07-09T03:45:29.647Z,99.90
2018-07-09T03:47:58.783Z,99.90
2018-07-09T03:50:28.127Z,99.90
2018-07-09T03:52:57.403Z,99.90
2018-07-09T03:55:26.783Z,99.90
2018-07-09T03:57:56.078Z,99.90
2018-07-09T04:00:25.224Z,99.90
2018-07-09T04:02:55.386Z,99.90
2018-07-09T04:05:24.633Z,99.90
2018-07-09T04:07:54.040Z,99.90
2018-07-09T04:10:23.927Z,99.90
2018-07-09T04:12:53.127Z,99.90
2018-07-09T04:15:22.492Z,99.90
2018-07-09T04:17:51.852Z,99.90
2018-07-09T04:20:21.378Z,99.90
2018-07-09T04:22:50.494Z,99.90
2018-07-09T04:25:19.856Z,99.90
2018-07-09T04:27:49.075Z,99.90
2018-07-09T04:30:18.252Z,99.90
2018-07-09T04:32:47.496Z,99.90
2018-07-09T04:35:16.966Z,99.90
2018-07-09T04:37:46.602Z,99.90
2018-07-09T04:40:15.833Z,99.90
2018-07-09T04:42:45.041Z,99.90
2018-07-09T04:45:14.683Z,99.90
2018-07-09T04:47:43.897Z,99.90
2018-07-09T04:50:13.200Z,99.80
2018-07-09T04:52:42.458Z,99.30
2018-07-09T04:55:11.880Z,99.00
2018-07-09T04:57:41.051Z,98.90
2018-07-09T05:00:10.249Z,98.90
2018-07-09T05:02:39.421Z,98.90
2018-07-09T05:05:08.780Z,99.10
2018-07-09T05:07:38.016Z,99.10
2018-07-09T05:10:07.609Z,99.00
2018-07-09T05:12:37.437Z,99.00
2018-07-09T05:15:06.723Z,98.70
2018-07-09T05:17:35.928Z,98.50
2018-07-09T05:20:05.094Z,98.30
2018-07-09T05:22:34.362Z,97.80
2018-07-09T05:25:03.571Z,97.50
2018-07-09T05:27:33.387Z,98.10
2018-07-09T05:30:02.577Z,97.60
2018-07-09T05:32:31.775Z,97.90
2018-07-09T05:35:01.047Z,97.50
2018-07-09T05:37:30.497Z,97.00
2018-07-09T05:39:59.889Z,97.30
2018-07-09T05:42:29.942Z,97.70
2018-07-09T05:44:59.110Z,97.30
2018-07-09T05:47:28.655Z,97.70
2018-07-09T05:49:57.965Z,98.00
2018-07-09T05:52:27.443Z,98.00
2018-07-09T05:54:56.614Z,97.50
2018-07-09T05:57:26.288Z,97.80
2018-07-09T05:59:55.564Z,97.60
2018-07-09T06:02:24.732Z,97.80
2018-07-09T06:04:54.038Z,97.90
2018-07-09T06:07:23.246Z,97.50
2018-07-09T06:09:52.718Z,97.40
2018-07-09T06:12:21.895Z,97.10
2018-07-09T06:14:51.128Z,96.30
2018-07-09T06:17:20.253Z,96.50
2018-07-09T06:19:49.564Z,96.20
2018-07-09T06:22:18.838Z,96.90
2018-07-09T06:24:48.080Z,96.90
2018-07-09T06:27:17.320Z,96.50
2018-07-09T06:29:46.529Z,95.90
2018-07-09T06:32:15.662Z,95.60
2018-07-09T06:34:45.066Z,95.60
2018-07-09T06:37:14.375Z,95.80
2018-07-09T06:39:43.956Z,95.90
2018-07-09T06:42:13.156Z,94.80
2018-07-09T06:44:42.523Z,94.00
2018-07-09T06:47:11.695Z,94.70
2018-07-09T06:49:40.953Z,94.40
2018-07-09T06:52:10.123Z,94.10
2018-07-09T06:54:39.348Z,94.30
2018-07-09T06:57:08.555Z,94.50
2018-07-09T06:59:37.925Z,94.40
2018-07-09T07:02:07.731Z,93.90
2018-07-09T07:04:36.875Z,93.90
2018-07-09T07:07:06.173Z,93.30
2018-07-09T07:09:35.385Z,93.80
2018-07-09T07:12:04.587Z,93.30
2018-07-09T07:14:34.006Z,93.60
2018-07-09T07:17:03.287Z,94.00
2018-07-09T07:19:32.776Z,94.00
2018-07-09T07:22:02.241Z,94.60
2018-07-09T07:24:32.108Z,94.20
2018-07-09T07:27:01.279Z,94.20
2018-07-09T07:29:30.592Z,92.50
2018-07-09T07:31:59.720Z,92.00
2018-07-09T07:34:29.614Z,90.80
2018-07-09T07:36:58.978Z,91.30
2018-07-09T07:39:28.880Z,90.70
2018-07-09T07:41:58.175Z,90.30
2018-07-09T07:44:27.488Z,90.70
2018-07-09T07:46:56.865Z,89.00
2018-07-09T07:49:26.051Z,88.60
2018-07-09T07:51:55.461Z,84.50
2018-07-09T07:54:24.653Z,86.40
2018-07-09T07:56:53.809Z,89.00
2018-07-09T07:59:22.924Z,88.80
2018-07-09T08:01:52.116Z,87.30
2018-07-09T08:04:21.313Z,84.10
2018-07-09T08:06:50.719Z,82.10
2018-07-09T08:09:20.402Z,82.70
2018-07-09T08:11:49.756Z,84.50
2018-07-09T08:14:19.070Z,87.30
2018-07-09T08:16:48.151Z,86.00
2018-07-09T08:19:17.480Z,84.70
2018-07-09T08:21:46.783Z,84.80
2018-07-09T08:24:16.245Z,84.30
2018-07-09T08:26:45.418Z,86.50
2018-07-09T08:29:14.763Z,84.70
2018-07-09T08:31:44.129Z,84.10
2018-07-09T08:34:13.460Z,84.00
2018-07-09T08:36:42.675Z,84.00
2018-07-09T08:39:12.077Z,85.30
2018-07-09T08:41:41.317Z,86.30
2018-07-09T08:44:10.592Z,87.10
2018-07-09T08:46:39.839Z,88.00
2018-07-09T08:49:08.996Z,88.70
2018-07-09T08:51:38.453Z,90.10
2018-07-09T08:54:07.658Z,89.80
2018-07-09T08:56:36.865Z,89.90
2018-07-09T08:59:06.222Z,90.10
2018-07-09T09:01:35.464Z,87.60
2018-07-09T09:04:04.948Z,87.90
2018-07-09T09:09:03.362Z,90.20
2018-07-09T09:11:32.495Z,90.60
2018-07-09T09:14:01.738Z,90.90
2018-07-09T09:16:30.948Z,91.00
2018-07-09T09:19:00.118Z,90.10
2018-07-09T09:23:58.455Z,90.90
2018-07-09T09:26:27.761Z,90.60
2018-07-09T09:28:56.951Z,90.80
2018-07-09T09:31:26.376Z,91.80
2018-07-09T09:33:55.538Z,92.90
2018-07-09T09:36:24.742Z,92.80
2018-07-09T09:41:22.689Z,91.70
2018-07-09T09:43:51.972Z,91.10
2018-07-09T09:46:21.360Z,90.70
2018-07-09T09:48:50.642Z,90.20
2018-07-09T09:51:19.937Z,89.20
2018-07-09T09:53:49.249Z,89.20
2018-07-09T09:56:18.379Z,87.30
2018-07-09T09:58:47.618Z,85.20
2018-07-09T10:01:16.811Z,85.70
2018-07-09T10:03:46.113Z,85.50
2018-07-09T10:06:15.258Z,85.60
2018-07-09T10:08:45.104Z,85.10
2018-07-09T10:11:14.342Z,86.10
2018-07-09T10:13:43.627Z,87.80
2018-07-09T10:16:12.822Z,88.70
2018-07-09T10:18:42.128Z,89.20
2018-07-09T10:21:11.609Z,89.00
2018-07-09T10:23:40.940Z,89.30
2018-07-09T10:26:10.042Z,89.40
2018-07-09T10:28:39.356Z,89.00
2018-07-09T10:31:08.685Z,89.10
2018-07-09T10:33:37.971Z,85.90
2018-07-09T10:36:07.086Z,83.30
2018-07-09T10:38:36.337Z,82.00
2018-07-09T10:41:05.562Z,78.80
2018-07-09T10:43:34.843Z,81.40
2018-07-09T10:48:32.999Z,84.60
2018-07-09T10:51:02.337Z,85.20
2018-07-09T10:53:31.534Z,86.70
2018-07-09T10:56:00.775Z,88.40
2018-07-09T10:58:30.151Z,88.20
2018-07-09T11:00:59.293Z,86.20
2018-07-09T11:03:28.688Z,85.10
2018-07-09T11:05:58.048Z,85.50
2018-07-09T11:08:27.404Z,85.00
2018-07-09T11:10:56.607Z,84.50
2018-07-09T11:13:25.856Z,85.20
2018-07-09T11:15:55.036Z,83.80
2018-07-09T11:20:52.945Z,85.80
2018-07-09T11:23:22.141Z,84.50
2018-07-09T11:25:51.338Z,82.00
2018-07-09T11:28:20.537Z,81.50
2018-07-09T11:30:49.836Z,76.70
2018-07-09T11:33:19.044Z,76.20
2018-07-09T11:35:48.380Z,78.40
2018-07-09T11:38:17.636Z,77.50
2018-07-09T11:40:46.856Z,78.00
2018-07-09T11:43:16.114Z,79.70
2018-07-09T11:45:45.384Z,79.10
2018-07-09T11:48:14.925Z,81.60
2018-07-09T11:50:44.130Z,81.60
2018-07-09T11:53:13.338Z,80.60
2018-07-09T11:55:42.532Z,81.20
2018-07-09T11:58:11.728Z,81.10
2018-07-09T12:00:40.869Z,80.50
2018-07-09T12:03:10.162Z,78.90
2018-07-09T12:05:39.329Z,80.30
2018-07-09T12:08:08.520Z,82.10
2018-07-09T12:10:37.950Z,81.60
2018-07-09T12:13:07.183Z,82.40
2018-07-09T12:15:36.485Z,81.90
2018-07-09T12:18:05.836Z,80.20
2018-07-09T12:20:34.936Z,79.10
2018-07-09T12:23:04.656Z,77.70
2018-07-09T12:25:33.795Z,80.70
2018-07-09T12:28:02.918Z,80.30
2018-07-09T12:30:32.266Z,80.00
2018-07-09T12:33:01.369Z,79.50
2018-07-09T12:35:30.483Z,77.40
2018-07-09T12:37:59.910Z,77.60
2018-07-09T12:40:29.382Z,77.60
2018-07-09T12:42:58.591Z,77.80
2018-07-09T12:45:27.950Z,79.10
2018-07-09T12:47:57.150Z,79.10
2018-07-09T12:50:27.092Z,80.50
2018-07-09T12:52:56.215Z,79.00
2018-07-09T12:55:25.431Z,78.80
2018-07-09T12:57:54.609Z,78.10
2018-07-09T13:00:24.608Z,78.90
2018-07-09T13:02:54.079Z,77.10
2018-07-09T13:05:23.290Z,78.20
2018-07-09T13:07:52.480Z,78.80
2018-07-09T13:10:21.691Z,78.20
2018-07-09T13:12:50.878Z,78.00
2018-07-09T13:15:20.156Z,77.80
2018-07-09T13:17:49.394Z,77.90
2018-07-09T13:20:18.607Z,78.70
2018-07-09T13:22:47.832Z,79.20
2018-07-09T13:25:17.048Z,78.10
2018-07-09T13:27:46.274Z,75.90
2018-07-09T13:30:15.391Z,73.70
2018-07-09T13:32:44.494Z,74.50
2018-07-09T13:35:13.960Z,75.60
2018-07-09T13:37:43.277Z,74.90
2018-07-09T13:40:12.393Z,75.50
2018-07-09T13:42:41.550Z,77.00
2018-07-09T13:47:39.700Z,77.80
2018-07-09T13:50:08.908Z,78.40
2018-07-09T13:52:38.144Z,79.80
2018-07-09T13:55:07.320Z,78.40
2018-07-09T13:57:36.548Z,79.40
2018-07-09T14:00:06.220Z,77.80
2018-07-09T14:02:35.326Z,77.80
2018-07-09T14:05:04.547Z,77.20
2018-07-09T14:07:34.439Z,79.30
2018-07-09T14:10:04.199Z,78.90
2018-07-09T14:12:33.479Z,79.30
2018-07-09T14:15:02.789Z,80.00
2018-07-09T14:17:31.944Z,79.60
2018-07-09T14:20:22.800Z,79.10
2018-07-09T14:22:52.041Z,79.40
2018-07-09T14:25:22.136Z,78.50
2018-07-09T14:27:51.299Z,79.80
2018-07-09T14:30:20.512Z,76.80
2018-07-09T14:32:49.818Z,72.40
2018-07-09T14:35:19.049Z,69.50
2018-07-09T14:37:48.307Z,71.30
2018-07-09T14:40:17.543Z,71.30
2018-07-09T14:42:46.819Z,72.00
2018-07-09T14:45:16.529Z,71.20
2018-07-09T14:50:14.361Z,73.20
2018-07-09T14:52:43.573Z,74.60
2018-07-09T14:55:13.630Z,75.40
2018-07-09T14:57:42.880Z,76.60
2018-07-09T15:00:12.120Z,75.10
2018-07-09T15:02:41.428Z,75.90
2018-07-09T15:05:10.668Z,75.80
2018-07-09T15:07:39.876Z,76.60
2018-07-09T15:10:09.088Z,74.60
2018-07-09T15:12:38.295Z,72.50
2018-07-09T15:15:07.456Z,71.30
2018-07-09T15:17:37.009Z,70.00
2018-07-09T15:20:06.324Z,67.70
2018-07-09T15:22:35.505Z,68.10
2018-07-09T15:25:11.342Z,69.20
2018-07-09T15:27:40.523Z,70.30
2018-07-09T15:30:09.658Z,68.70
2018-07-09T15:32:38.951Z,67.60
2018-07-09T15:35:08.167Z,68.60
2018-07-09T15:37:37.466Z,69.90
2018-07-09T15:40:06.630Z,70.00
2018-07-09T15:42:35.793Z,71.20
2018-07-09T15:45:05.504Z,70.70
2018-07-09T15:47:34.705Z,70.50
2018-07-09T15:50:03.853Z,70.90
2018-07-09T15:52:33.167Z,70.70
2018-07-09T15:55:02.566Z,71.50
2018-07-09T15:57:31.769Z,70.70
2018-07-09T16:00:01.110Z,72.60
2018-07-09T16:02:30.317Z,74.70
2018-07-09T16:04:59.560Z,79.50
2018-07-09T16:09:57.873Z,82.10
2018-07-09T16:12:27.214Z,84.00
2018-07-09T16:14:56.324Z,82.60
2018-07-09T16:17:25.982Z,80.40
2018-07-09T16:19:55.136Z,79.80
2018-07-09T16:22:24.362Z,79.40
2018-07-09T16:24:53.464Z,80.10
2018-07-09T16:27:22.893Z,80.00
2018-07-09T16:29:51.995Z,81.50
2018-07-09T16:32:21.131Z,80.00
2018-07-09T16:34:50.491Z,80.90
2018-07-09T16:37:19.993Z,80.40
2018-07-09T16:39:49.141Z,80.20
2018-07-09T16:42:18.543Z,79.60
2018-07-09T16:44:47.725Z,78.50
2018-07-09T16:47:16.873Z,77.40
2018-07-09T16:49:46.057Z,77.10
2018-07-09T16:52:15.210Z,74.20
2018-07-09T16:54:44.381Z,72.50
2018-07-09T16:57:13.790Z,72.20
2018-07-09T16:59:42.967Z,73.20
2018-07-09T17:02:12.292Z,72.90
2018-07-09T17:04:41.444Z,72.70
2018-07-09T17:09:39.551Z,72.90
2018-07-09T17:12:08.742Z,71.00
2018-07-09T17:14:37.906Z,72.00
2018-07-09T17:19:35.795Z,71.90
2018-07-09T17:22:05.027Z,72.70
2018-07-09T17:27:03.128Z,70.20
2018-07-09T17:29:32.281Z,72.40
2018-07-09T17:32:01.391Z,73.80
2018-07-09T17:34:30.783Z,74.60
2018-07-09T17:36:59.940Z,75.80
2018-07-09T17:39:29.279Z,75.90
2018-07-09T17:41:59.232Z,77.20
2018-07-09T17:44:28.409Z,78.10
2018-07-09T17:49:26.521Z,80.40
2018-07-09T17:51:55.651Z,80.50
2018-07-09T17:54:24.997Z,80.40
2018-07-09T17:56:54.188Z,85.30
2018-07-09T17:59:23.410Z,84.20
2018-07-09T18:01:52.619Z,84.30
2018-07-09T18:06:51.132Z,84.40
2018-07-09T18:09:20.532Z,83.00
2018-07-09T18:11:50.522Z,81.50
2018-07-09T18:14:19.656Z,81.60
2018-07-09T18:16:48.788Z,81.60
2018-07-09T18:19:17.959Z,82.40
2018-07-09T18:21:47.093Z,81.90
2018-07-09T18:24:16.267Z,82.60
2018-07-09T18:26:45.407Z,82.80
2018-07-09T18:29:14.891Z,82.50
2018-07-09T18:31:44.311Z,82.50
2018-07-09T18:34:13.648Z,82.50
2018-07-09T18:36:43.123Z,83.00
2018-07-09T18:39:12.660Z,82.40
2018-07-09T18:41:42.286Z,81.60
2018-07-09T18:44:11.548Z,81.80
2018-07-09T18:46:40.765Z,82.10
2018-07-09T18:49:09.996Z,81.70
2018-07-09T18:51:39.241Z,81.40
2018-07-09T18:54:08.468Z,81.50
2018-07-09T18:56:37.614Z,82.10
2018-07-09T18:59:06.937Z,83.00
2018-07-09T19:01:36.246Z,83.10
2018-07-09T19:04:05.505Z,84.30
2018-07-09T19:07:07.940Z,82.80
2018-07-09T19:09:37.657Z,81.70
2018-07-09T19:12:07.663Z,82.00
2018-07-09T19:14:40.157Z,80.60
2018-07-09T19:18:21.958Z,81.30
2018-07-09T19:21:30.248Z,81.60
2018-07-09T19:23:58.626Z,83.70
2018-07-09T19:26:26.583Z,86.70
2018-07-09T19:28:54.783Z,89.20
2018-07-09T19:31:22.743Z,90.20
2018-07-09T19:33:51.478Z,92.00
2018-07-09T19:36:19.538Z,94.50
2018-07-09T19:38:47.537Z,95.40
2018-07-09T19:41:15.665Z,95.40
2018-07-09T19:43:43.622Z,95.50
2018-07-09T19:46:11.568Z,95.70
2018-07-09T19:48:39.565Z,95.40
2018-07-09T19:51:07.692Z,95.30
2018-07-09T19:53:35.667Z,94.30
2018-07-09T19:56:03.641Z,94.60
2018-07-09T19:58:31.605Z,93.80
2018-07-09T20:00:59.579Z,93.40
2018-07-09T20:03:27.760Z,93.40
2018-07-09T20:05:55.704Z,93.60
2018-07-09T20:08:28.900Z,93.80
2018-07-09T20:11:02.091Z,94.10
2018-07-09T20:14:33.246Z,94.30
2018-07-09T20:17:35.922Z,94.50
2018-07-09T20:20:04.621Z,93.60
2018-07-09T20:22:32.630Z,93.00
2018-07-09T20:25:00.592Z,92.80
2018-07-09T20:27:28.656Z,93.30
2018-07-09T20:29:57.071Z,93.50
2018-07-09T20:32:25.175Z,94.00
2018-07-09T20:34:53.143Z,94.60
2018-07-09T20:37:21.084Z,94.90
2018-07-09T20:39:49.058Z,94.60
2018-07-09T20:42:17.205Z,95.10
2018-07-09T20:44:45.150Z,96.00
2018-07-09T20:47:13.096Z,97.00
2018-07-09T20:49:41.060Z,97.80
2018-07-09T20:52:09.040Z,98.20
2018-07-09T20:54:37.843Z,98.70
2018-07-09T20:57:05.836Z,98.80
2018-07-09T20:59:34.091Z,98.70
2018-07-09T21:02:02.223Z,98.90
2018-07-09T21:04:31.606Z,98.80
2018-07-09T21:07:00.788Z,99.00
2018-07-09T21:09:29.698Z,99.30
2018-07-09T21:11:58.262Z,99.10
2018-07-09T21:14:26.217Z,98.90
2018-07-09T21:16:54.909Z,99.10
2018-07-09T21:19:22.935Z,99.00
2018-07-09T21:21:51.005Z,99.50
2018-07-09T21:24:18.964Z,99.90
2018-07-09T21:26:47.025Z,99.90
2018-07-09T21:29:14.963Z,99.90
2018-07-09T21:31:43.021Z,99.90
2018-07-09T21:34:10.992Z,99.90
2018-07-09T21:36:38.953Z,99.80
2018-07-09T21:39:08.252Z,98.90
2018-07-09T21:41:36.196Z,98.80
2018-07-09T21:44:04.144Z,97.50
2018-07-09T21:46:32.110Z,96.80
2018-07-09T21:49:00.088Z,96.80
2018-07-09T21:51:28.216Z,96.50
2018-07-09T21:53:56.159Z,96.30
2018-07-09T21:56:24.144Z,95.90
2018-07-09T21:58:52.045Z,95.70
2018-07-09T22:01:20.000Z,95.60
2018-07-09T22:03:47.946Z,95.50
2018-07-09T22:06:15.888Z,95.00
2018-07-09T22:08:43.836Z,95.20
2018-07-09T22:11:11.779Z,94.50
2018-07-09T22:13:39.733Z,94.60
2018-07-09T22:16:07.796Z,95.20
2018-07-09T22:18:35.909Z,94.90
2018-07-09T22:21:04.000Z,95.00
2018-07-09T22:23:31.948Z,94.60
2018-07-09T22:25:59.879Z,93.80
2018-07-09T22:28:27.872Z,93.90
2018-07-09T22:30:57.024Z,93.70
2018-07-09T22:33:26.220Z,93.70
2018-07-09T22:35:55.441Z,93.20
2018-07-09T22:40:53.628Z,93.20
2018-07-09T22:43:34.071Z,93.10
2018-07-09T22:46:03.432Z,93.40
2018-07-09T22:48:32.621Z,93.70
2018-07-09T22:51:01.975Z,93.50
2018-07-09T22:53:31.127Z,93.10
2018-07-09T22:56:08.050Z,93.30
2018-07-09T22:58:38.124Z,93.80
2018-07-09T23:01:07.346Z,93.70
2018-07-09T23:03:36.625Z,93.90
2018-07-09T23:06:05.849Z,93.70
2018-07-09T23:08:35.002Z,93.30
2018-07-09T23:11:21.322Z,93.30
2018-07-09T23:17:10.724Z,94.20
2018-07-09T23:22:00.620Z,93.70
2018-07-09T23:26:57.078Z,94.00
2018-07-09T23:29:25.046Z,94.40
2018-07-09T23:31:52.975Z,94.30
2018-07-09T23:34:20.968Z,94.30
2018-07-09T23:36:48.936Z,93.90
2018-07-09T23:39:16.924Z,93.30
2018-07-09T23:41:44.879Z,92.30
2018-07-09T23:46:40.960Z,91.60
2018-07-09T23:49:08.932Z,91.30
2018-07-09T23:51:36.873Z,92.00
2018-07-09T23:59:48.899Z,91.80
